Time;durP1;ratioP1;P1;durP2;ratioP2;P2;SDS_P1;SDS_P2;PMS_P1;PMS_P2;Temp;Humidity;BMP_temperature;BMP_pressure;BME280_temperature;BME280_humidity;BME280_pressure;Samples;Min_cycle;Max_cycle;Signal;HPM_P1;HPM_P2
2022/04/12 00:00:06;;;;;;;6.93;4.90;;;;;;;3.01;83.64;99341.88;5074175;28;20490;-79
2022/04/12 00:02:42;;;;;;;7.55;4.95;;;;;;;2.98;83.28;99328.00;5074339;28;20048;-79
2022/04/12 00:05:11;;;;;;;7.97;5.43;;;;;;;2.93;83.52;99325.31;5073978;28;20114;-78
2022/04/12 00:07:58;;;;;;;6.00;4.70;;;;;;;3.01;84.13;99333.22;5074175;28;20052;-78
2022/04/12 00:10:26;;;;;;;7.93;5.28;;;;;;;2.98;83.51;99341.75;5073763;28;20053;-79
2022/04/12 00:12:54;;;;;;;7.57;5.53;;;;;;;2.91;83.64;99331.28;5073554;28;20044;-78
2022/04/12 00:15:21;;;;;;;6.40;4.85;;;;;;;2.94;83.75;99326.16;5073895;28;20056;-79
2022/04/12 00:20:36;;;;;;;7.35;5.32;;;;;;;2.88;83.86;99308.81;5081976;28;20437;-79
2022/04/12 00:23:04;;;;;;;6.75;5.20;;;;;;;2.95;83.54;99341.69;5073740;28;20528;-79
2022/04/12 00:25:31;;;;;;;5.93;4.72;;;;;;;3.05;83.73;99364.34;5073693;28;20048;-80
2022/04/12 00:27:59;;;;;;;7.38;5.97;;;;;;;3.05;83.38;99337.63;5072519;28;20060;-79
2022/04/12 00:30:28;;;;;;;6.85;5.00;;;;;;;3.14;83.29;99339.56;5073863;28;20052;-78
2022/04/12 00:32:55;;;;;;;9.48;5.47;;;;;;;3.08;83.60;99341.16;5078501;28;20056;-77
2022/04/12 00:35:24;;;;;;;6.80;5.32;;;;;;;3.04;83.56;99323.88;5086623;28;20056;-78
2022/04/12 00:37:52;;;;;;;6.97;4.80;;;;;;;3.24;83.13;99332.09;5085979;28;20048;-79
2022/04/12 00:40:20;;;;;;;7.60;4.85;;;;;;;3.31;82.88;99347.72;5092775;28;20055;-79
2022/04/12 00:42:48;;;;;;;7.00;5.25;;;;;;;3.21;83.07;99310.50;5093491;28;20109;-78
2022/04/12 00:45:15;;;;;;;7.00;4.88;;;;;;;3.41;82.94;99347.97;5086340;28;20059;-78
2022/04/12 00:47:42;;;;;;;7.10;5.40;;;;;;;3.44;83.20;99330.00;5073328;28;20480;-79
2022/04/12 00:50:11;;;;;;;5.90;4.50;;;;;;;3.33;83.25;99305.63;5073912;28;20059;-80
2022/04/12 00:52:45;;;;;;;6.20;4.30;;;;;;;3.42;83.07;99323.94;5073736;28;20052;-80
2022/04/12 00:55:12;;;;;;;6.95;4.85;;;;;;;3.33;83.00;99295.28;5097628;28;20056;-79
2022/04/12 00:57:41;;;;;;;5.72;4.75;;;;;;;3.39;82.69;99299.72;5093941;28;20056;-80
2022/04/12 01:00:12;;;;;;;4.93;4.15;;;;;;;3.37;83.47;99301.41;5097265;28;20064;-79
2022/04/12 01:02:40;;;;;;;4.43;4.03;;;;;;;3.36;82.96;99302.25;5075744;28;20052;-79
2022/04/12 01:05:08;;;;;;;6.75;4.40;;;;;;;3.22;83.20;99276.09;5073147;28;20056;-79
2022/04/12 01:07:36;;;;;;;5.97;4.60;;;;;;;3.31;83.53;99291.78;5072866;28;20052;-79
2022/04/12 01:10:06;;;;;;;4.57;3.88;;;;;;;3.35;82.92;99295.34;5072965;28;20139;-79
2022/04/12 01:12:41;;;;;;;4.72;3.80;;;;;;;3.26;83.36;99290.81;5072790;28;20058;-79
2022/04/12 01:15:23;;;;;;;3.83;3.20;;;;;;;3.20;82.97;99290.69;5072760;28;20087;-79
2022/04/12 01:17:51;;;;;;;2.85;2.63;;;;;;;3.05;83.47;99258.53;5072416;28;20498;-79
2022/04/12 01:20:23;;;;;;;3.50;3.10;;;;;;;3.25;83.05;99300.28;5071405;28;20494;-79
2022/04/12 01:22:50;;;;;;;3.30;3.00;;;;;;;3.23;83.06;99290.78;5072587;28;20059;-80
2022/04/12 01:25:19;;;;;;;3.88;2.95;;;;;;;3.14;83.42;99262.13;5072852;28;20082;-79
2022/04/12 01:27:47;;;;;;;2.88;2.58;;;;;;;3.23;82.65;99294.22;5072729;28;20505;-79
2022/04/12 01:30:14;;;;;;;2.80;2.60;;;;;;;3.16;83.34;99282.00;5072917;28;20056;-80
2022/04/12 01:32:42;;;;;;;3.75;2.88;;;;;;;3.15;83.47;99266.47;5076169;28;20068;-81
2022/04/12 01:35:09;;;;;;;4.75;2.58;;;;;;;3.14;82.99;99275.03;5076770;28;20109;-79
2022/04/12 01:37:36;;;;;;;4.47;2.40;;;;;;;3.12;83.42;99290.50;5076482;28;20524;-79
2022/04/12 01:40:05;;;;;;;3.65;2.83;;;;;;;3.04;83.56;99298.06;5076270;28;20060;-79
2022/04/12 01:42:32;;;;;;;3.10;2.50;;;;;;;3.08;83.36;99286.09;5076456;28;20102;-78
2022/04/12 01:44:59;;;;;;;2.40;2.10;;;;;;;2.96;83.60;99247.97;5074725;28;20056;-78
2022/04/12 01:47:26;;;;;;;3.47;2.47;;;;;;;3.04;84.00;99233.53;5076048;28;20064;-78
2022/04/12 01:49:53;;;;;;;3.70;3.40;;;;;;;2.96;84.04;99262.59;5081715;28;20135;-79
2022/04/12 01:52:21;;;;;;;4.18;3.10;;;;;;;2.97;84.01;99257.47;5086247;28;20056;-80
2022/04/12 01:54:48;;;;;;;3.58;3.28;;;;;;;2.93;84.44;99273.72;5087723;28;20084;-79
2022/04/12 01:57:16;;;;;;;3.70;3.40;;;;;;;2.84;84.43;99247.69;5087070;28;20056;-79
2022/04/12 01:59:43;;;;;;;4.68;3.60;;;;;;;2.97;84.72;99238.50;5079481;28;20080;-79
2022/04/12 02:02:10;;;;;;;4.70;4.20;;;;;;;3.02;84.59;99212.00;5077915;28;20063;-79
2022/04/12 02:04:37;;;;;;;6.35;4.28;;;;;;;3.01;84.33;99268.72;5077136;28;20103;-79
2022/04/12 02:07:04;;;;;;;6.57;4.93;;;;;;;2.97;84.74;99260.06;5076075;28;20064;-80
2022/04/12 02:09:31;;;;;;;5.03;4.53;;;;;;;3.00;84.77;99252.38;5075559;28;20053;-79
2022/04/12 02:11:58;;;;;;;6.70;4.68;;;;;;;3.01;84.50;99260.97;5074217;28;20055;-79
2022/04/12 02:14:25;;;;;;;7.13;5.13;;;;;;;3.03;84.88;99259.31;5075293;28;20052;-78
2022/04/12 02:16:52;;;;;;;6.82;4.93;;;;;;;2.92;85.13;99235.81;5075352;28;20048;-80
2022/04/12 02:19:19;;;;;;;7.53;5.50;;;;;;;3.06;84.72;99244.78;5075262;28;20048;-78
2022/04/12 02:21:46;;;;;;;7.57;5.55;;;;;;;3.16;85.42;99248.47;5075079;28;20600;-78
2022/04/12 02:24:13;;;;;;;7.10;5.13;;;;;;;3.20;84.55;99231.31;5075451;28;20082;-79
2022/04/12 02:26:40;;;;;;;6.78;4.40;;;;;;;3.12;84.37;99217.34;5075176;28;20433;-79
2022/04/12 02:29:07;;;;;;;7.50;5.65;;;;;;;2.93;85.00;99193.72;5075513;28;20056;-79
2022/04/12 02:31:35;;;;;;;8.40;6.07;;;;;;;3.10;84.38;99219.03;5074803;28;20057;-79
2022/04/12 02:34:02;;;;;;;9.20;6.28;;;;;;;3.13;84.84;99229.44;5075282;28;20048;-79
2022/04/12 02:36:28;;;;;;;9.82;6.22;;;;;;;3.17;84.82;99264.81;5075201;28;20051;-79
2022/04/12 02:38:55;;;;;;;9.27;6.00;;;;;;;3.22;85.25;99252.88;5075843;28;20067;-80
2022/04/12 02:41:22;;;;;;;10.07;5.88;;;;;;;3.18;84.74;99239.00;5075506;28;20073;-79
2022/04/12 02:43:49;;;;;;;10.10;5.75;;;;;;;3.30;85.22;99235.00;5073935;28;20056;-79
2022/04/12 02:46:16;;;;;;;11.10;6.47;;;;;;;3.26;85.04;99224.56;5079763;28;20052;-80
2022/04/12 02:48:43;;;;;;;9.18;5.88;;;;;;;3.24;84.81;99239.16;5083164;28;20532;-80
2022/04/12 02:51:11;;;;;;;11.43;5.40;;;;;;;3.14;84.91;99226.00;5075540;28;20052;-78
2022/04/12 02:53:38;;;;;;;11.48;5.90;;;;;;;3.28;85.17;99256.47;5086252;28;20052;-79
2022/04/12 02:56:05;;;;;;;10.02;5.80;;;;;;;3.24;84.80;99234.00;5094118;28;20063;-79
2022/04/12 02:58:32;;;;;;;13.35;5.57;;;;;;;3.35;84.98;99241.97;5082095;28;20049;-79
2022/04/12 03:00:59;;;;;;;14.68;5.47;;;;;;;3.36;84.86;99250.63;5082829;28;20052;-79
2022/04/12 03:03:26;;;;;;;12.27;5.53;;;;;;;3.41;85.19;99246.41;5095176;28;20052;-78
2022/04/12 03:05:53;;;;;;;12.32;5.18;;;;;;;3.41;84.65;99239.53;5093814;28;20052;-78
2022/04/12 03:08:19;;;;;;;12.63;5.43;;;;;;;3.39;84.69;99238.63;5077577;28;20053;-80
2022/04/12 03:10:46;;;;;;;14.82;5.80;;;;;;;3.35;84.75;99244.56;5074672;28;20094;-78
2022/04/12 03:13:13;;;;;;;14.45;5.25;;;;;;;3.40;84.94;99258.47;5074342;28;20105;-79
2022/04/12 03:15:40;;;;;;;13.23;5.63;;;;;;;3.37;85.19;99245.47;5072890;28;20135;-78
2022/04/12 03:18:07;;;;;;;9.98;5.13;;;;;;;3.39;84.85;99248.97;5074303;28;20056;-79
2022/04/12 03:20:34;;;;;;;14.93;6.15;;;;;;;3.42;85.29;99251.63;5074436;28;20112;-78
2022/04/12 03:23:05;;;;;;;12.45;5.90;;;;;;;3.45;84.75;99246.50;5074276;28;20143;-79
2022/04/12 03:25:32;;;;;;;12.30;5.30;;;;;;;3.48;84.83;99254.34;5074232;28;20056;-80
2022/04/12 03:28:00;;;;;;;16.58;5.43;;;;;;;3.52;85.36;99254.41;5073859;28;20056;-77
2022/04/12 03:30:27;;;;;;;17.05;5.38;;;;;;;3.47;84.95;99257.75;5073921;28;20139;-79
2022/04/12 03:32:55;;;;;;;16.08;5.65;;;;;;;3.45;85.26;99251.69;5073841;28;20055;-79
2022/04/12 03:35:22;;;;;;;20.13;5.45;;;;;;;3.43;84.68;99260.22;5072662;28;20441;-81
2022/04/12 03:37:49;;;;;;;11.75;4.97;;;;;;;3.53;85.54;99259.59;5074059;28;20052;-79
2022/04/12 03:40:16;;;;;;;13.63;6.00;;;;;;;3.49;84.83;99235.41;5073950;28;20502;-79
2022/04/12 03:42:43;;;;;;;18.35;5.85;;;;;;;3.62;84.95;99261.53;5074452;28;20143;-80
2022/04/12 03:45:10;;;;;;;12.80;5.63;;;;;;;3.73;84.98;99260.03;5073661;28;20106;-80
2022/04/12 03:47:38;;;;;;;25.88;6.05;;;;;;;3.82;85.03;99267.09;5074399;28;20106;-80
2022/04/12 03:50:06;;;;;;;11.65;5.65;;;;;;;3.90;84.48;99265.56;5074123;28;20058;-79
2022/04/12 03:52:33;;;;;;;15.77;5.10;;;;;;;3.97;84.29;99259.66;5074198;28;20048;-80
2022/04/12 03:55:00;;;;;;;13.93;5.97;;;;;;;3.83;83.91;99219.72;5073147;28;20059;-78
2022/04/12 03:57:29;;;;;;;15.65;5.47;;;;;;;4.01;83.96;99258.88;5083248;28;20087;-80
2022/04/12 03:59:56;;;;;;;17.52;5.95;;;;;;;4.02;84.26;99263.22;5073507;28;20049;-80
2022/04/12 04:02:23;;;;;;;14.05;5.97;;;;;;;4.02;84.55;99262.31;5073849;28;20070;-78
2022/04/12 04:04:50;;;;;;;13.30;5.38;;;;;;;3.85;84.33;99238.72;5072842;28;20422;-78
2022/04/12 04:07:17;;;;;;;19.67;6.03;;;;;;;3.95;84.42;99255.31;5074296;28;20052;-79
2022/04/12 04:09:44;;;;;;;16.65;5.63;;;;;;;3.90;84.37;99250.91;5073752;28;20105;-79
2022/04/12 04:12:11;;;;;;;17.10;5.07;;;;;;;3.95;84.29;99271.66;5072629;28;20509;-81
2022/04/12 04:14:39;;;;;;;18.73;5.97;;;;;;;3.97;84.44;99266.53;5071968;28;20045;-79
2022/04/12 04:17:06;;;;;;;19.33;5.68;;;;;;;3.96;84.45;99254.44;5072400;28;20056;-78
2022/04/12 04:19:33;;;;;;;22.00;5.85;;;;;;;3.93;83.76;99252.69;5082004;28;20387;-82
2022/04/12 04:22:01;;;;;;;23.15;5.97;;;;;;;3.98;84.10;99263.09;5092092;28;20063;-79
2022/04/12 04:24:34;;;;;;;23.02;6.95;;;;;;;4.00;84.06;99254.56;5095745;28;20064;-80
2022/04/12 04:27:05;;;;;;;15.98;5.75;;;;;;;4.16;84.25;99265.22;5094633;28;20051;-82
2022/04/12 04:29:35;;;;;;;21.30;5.55;;;;;;;4.19;83.61;99250.59;5084960;28;20110;-80
2022/04/12 04:32:17;;;;;;;35.23;6.47;;;;;;;4.24;84.06;99254.16;5092661;28;20040;-80
2022/04/12 04:34:54;;;;;;;22.35;6.43;;;;;;;4.26;83.61;99241.28;5081540;28;20366;-79
2022/04/12 04:37:21;;;;;;;19.30;6.55;;;;;;;4.33;83.59;99256.06;5093161;28;20138;-80
2022/04/12 04:39:51;;;;;;;22.13;6.13;;;;;;;4.29;83.15;99246.50;5092822;28;20093;-81
2022/04/12 04:42:20;;;;;;;22.05;6.47;;;;;;;4.37;83.29;99254.41;5094739;28;20109;-81
2022/04/12 04:44:47;;;;;;;26.88;6.80;;;;;;;4.45;82.99;99278.66;5095630;28;20233;-82
2022/04/12 04:47:15;;;;;;;26.90;6.72;;;;;;;4.48;83.73;99261.50;5115112;28;20132;-80
2022/04/12 04:49:42;;;;;;;27.60;6.78;;;;;;;4.60;82.98;99273.78;5113638;28;20052;-81
2022/04/12 04:52:09;;;;;;;29.50;7.55;;;;;;;4.52;82.85;99262.44;5113897;28;20064;-80
2022/04/12 04:54:35;;;;;;;36.78;6.38;;;;;;;4.60;82.79;99265.16;5106419;28;20112;-80
2022/04/12 04:57:03;;;;;;;20.92;6.05;;;;;;;4.74;82.63;99257.66;5092681;28;20163;-82
2022/04/12 04:59:30;;;;;;;18.98;6.30;;;;;;;4.75;82.90;99268.00;5093302;28;20060;-80
2022/04/12 05:01:57;;;;;;;22.30;6.72;;;;;;;4.69;82.69;99245.50;5093040;28;20048;-80
2022/04/12 05:04:24;;;;;;;25.98;5.93;;;;;;;4.77;82.47;99252.50;5094862;28;20083;-79
2022/04/12 05:06:56;;;;;;;21.80;5.88;;;;;;;4.86;82.23;99268.19;5108739;28;20063;-80
2022/04/12 05:09:30;;;;;;;24.95;6.20;;;;;;;4.81;82.16;99257.75;5091574;28;20065;-80
2022/04/12 05:11:57;;;;;;;19.27;7.57;;;;;;;4.99;81.78;99267.56;5093420;28;20052;-82
2022/04/12 05:14:24;;;;;;;26.35;5.90;;;;;;;5.05;81.84;99254.69;5091707;28;20093;-83
2022/04/12 05:16:51;;;;;;;24.98;6.57;;;;;;;5.00;81.96;99258.06;5091546;28;20048;-81
2022/04/12 05:19:18;;;;;;;22.48;6.38;;;;;;;4.98;81.41;99260.63;5093061;28;20055;-80
2022/04/12 05:21:45;;;;;;;17.35;6.72;;;;;;;4.97;82.07;99250.25;5092930;28;20097;-79
2022/04/12 05:24:12;;;;;;;30.50;6.20;;;;;;;5.03;82.03;99256.38;5100717;28;20101;-80
2022/04/12 05:26:39;;;;;;;21.35;7.18;;;;;;;4.98;81.51;99247.69;5104258;28;20056;-79
2022/04/12 05:29:06;;;;;;;20.92;6.47;;;;;;;5.04;82.09;99250.38;5098301;28;20058;-79
2022/04/12 05:31:33;;;;;;;16.23;6.82;;;;;;;5.18;81.46;99268.69;5096129;28;20056;-80
2022/04/12 05:34:05;;;;;;;15.35;6.60;;;;;;;5.40;81.40;99262.16;5086995;28;20055;-80
2022/04/12 05:36:32;;;;;;;18.80;6.85;;;;;;;5.53;80.86;99276.16;5074368;28;20114;-81
2022/04/12 05:38:59;;;;;;;22.63;6.30;;;;;;;5.40;80.68;99254.38;5073499;28;20052;-78
2022/04/12 05:41:26;;;;;;;16.50;6.68;;;;;;;5.49;81.07;99267.44;5078511;28;20521;-80
2022/04/12 05:43:53;;;;;;;24.67;6.63;;;;;;;5.65;80.25;99270.25;5075722;28;20055;-79
2022/04/12 05:46:20;;;;;;;19.95;6.43;;;;;;;5.75;80.06;99283.34;5073369;28;20056;-80
2022/04/12 05:48:47;;;;;;;15.65;6.97;;;;;;;5.87;80.35;99268.81;5072759;28;20106;-80
2022/04/12 05:51:14;;;;;;;15.63;5.93;;;;;;;6.00;79.61;99288.91;5072490;28;20056;-80
2022/04/12 05:53:41;;;;;;;13.73;6.22;;;;;;;6.01;79.41;99279.41;5073983;28;20102;-81
2022/04/12 05:56:08;;;;;;;11.38;6.53;;;;;;;6.01;79.64;99267.31;5072150;28;20051;-83
2022/04/12 05:58:37;;;;;;;14.93;7.38;;;;;;;6.13;78.91;99248.41;5072502;28;20067;-78
2022/04/12 06:01:04;;;;;;;22.63;6.97;;;;;;;6.50;78.26;99256.63;5072108;28;20139;-78
2022/04/12 06:03:31;;;;;;;13.98;7.25;;;;;;;6.72;77.79;99255.09;5072039;28;20373;-80
2022/04/12 06:05:58;;;;;;;16.38;6.80;;;;;;;6.78;77.46;99254.28;5072054;28;20140;-79
2022/04/12 06:08:25;;;;;;;19.38;7.45;;;;;;;6.65;77.43;99248.09;5058625;28;20048;-79
2022/04/12 06:10:52;;;;;;;13.60;7.85;;;;;;;6.60;77.65;99241.97;5071979;28;20446;-80
2022/04/12 06:13:19;;;;;;;12.35;7.22;;;;;;;6.62;77.49;99258.44;5071771;28;20585;-79
2022/04/12 06:15:47;;;;;;;14.50;7.68;;;;;;;6.59;77.89;99254.09;5070875;28;20048;-81
2022/04/12 06:18:14;;;;;;;19.02;7.57;;;;;;;6.83;77.58;99271.63;5074864;28;20055;-78
2022/04/12 06:20:42;;;;;;;15.68;7.68;;;;;;;6.84;77.33;99267.28;5074540;28;20151;-77
2022/04/12 06:23:09;;;;;;;15.77;7.88;;;;;;;6.86;77.33;99261.28;5075664;28;20498;-81
2022/04/12 06:25:36;;;;;;;13.35;8.32;;;;;;;6.71;77.47;99259.41;5076986;28;20051;-80
2022/04/12 06:28:04;;;;;;;18.67;7.80;;;;;;;6.74;77.93;99264.63;5084366;28;20122;-78
2022/04/12 06:30:31;;;;;;;14.85;8.23;;;;;;;7.02;77.25;99264.88;5075563;28;20053;-80
2022/04/12 06:32:58;;;;;;;16.20;7.55;;;;;;;7.16;76.77;99260.66;5075342;28;20079;-79
2022/04/12 06:35:25;;;;;;;16.42;8.13;;;;;;;7.23;76.12;99263.28;5075273;28;20052;-80
2022/04/12 06:37:56;;;;;;;14.48;8.57;;;;;;;7.01;76.59;99229.34;5075138;28;20059;-79
2022/04/12 06:40:24;;;;;;;15.25;8.63;;;;;;;7.14;76.21;99249.38;5076082;28;20070;-78
2022/04/12 06:42:52;;;;;;;14.85;8.43;;;;;;;7.17;76.43;99244.19;5075980;28;20148;-81
2022/04/12 06:45:20;;;;;;;14.18;7.47;;;;;;;7.46;76.51;99261.69;5075399;28;20151;-79
2022/04/12 06:47:59;;;;;;;12.38;6.70;;;;;;;7.58;75.31;99258.31;5075632;28;20063;-80
2022/04/12 06:50:27;;;;;;;11.45;7.05;;;;;;;7.72;75.39;99263.59;5075695;28;20048;-79
2022/04/12 06:52:56;;;;;;;13.13;6.78;;;;;;;7.86;75.24;99266.28;5080501;28;20066;-81
2022/04/12 06:55:23;;;;;;;12.35;7.43;;;;;;;8.05;74.75;99269.84;5077287;28;20048;-78
2022/04/12 06:57:50;;;;;;;11.82;6.22;;;;;;;8.21;73.98;99259.47;5090575;28;20060;-80
2022/04/12 07:00:18;;;;;;;13.45;6.63;;;;;;;8.48;73.71;99246.56;5097325;28;20044;-79
2022/04/12 07:02:48;;;;;;;11.77;6.78;;;;;;;8.38;73.11;99251.72;5096800;28;20056;-80
2022/04/12 07:05:16;;;;;;;;;;;;;;;8.00;74.80;99243.78;5096648;28;20441;-81
2022/04/12 07:07:43;;;;;;;10.77;6.85;;;;;;;8.05;74.61;99256.81;5095458;28;19969;-80
2022/04/12 07:10:12;;;;;;;9.90;6.28;;;;;;;8.01;74.82;99245.53;5095339;28;20052;-82
2022/04/12 07:12:40;;;;;;;12.60;6.85;;;;;;;7.71;74.83;99228.06;5094737;28;20147;-79
2022/04/12 07:15:09;;;;;;;14.75;7.45;;;;;;;7.50;75.81;99213.22;5088357;28;20056;-82
2022/04/12 07:17:36;;;;;;;10.52;6.65;;;;;;;7.70;75.25;99249.72;5092430;28;20160;-83
2022/04/12 07:20:04;;;;;;;14.30;7.38;;;;;;;7.70;75.30;99223.72;5094718;28;20087;-81
2022/04/12 07:22:31;;;;;;;13.18;7.63;;;;;;;8.05;75.24;99251.63;5094915;28;20102;-79
2022/04/12 07:24:59;;;;;;;12.25;6.60;;;;;;;8.47;73.72;99239.63;5094941;28;20139;-81
2022/04/12 07:27:26;;;;;;;12.63;7.43;;;;;;;8.84;72.79;99230.13;5094768;28;20055;-79
2022/04/12 07:29:53;;;;;;;11.63;7.13;;;;;;;9.32;71.77;99248.34;5093428;28;20051;-77
2022/04/12 07:32:20;;;;;;;13.48;7.93;;;;;;;9.50;70.63;99237.00;5095234;28;20078;-80
2022/04/12 07:34:47;;;;;;;13.88;6.88;;;;;;;9.68;70.66;99251.72;5094382;28;20055;-80
2022/04/12 07:37:14;;;;;;;11.57;7.65;;;;;;;9.88;70.83;99260.38;5093645;28;20066;-80
2022/04/12 07:39:41;;;;;;;11.18;7.20;;;;;;;10.05;69.96;99240.28;5094674;28;20113;-80
2022/04/12 07:42:11;;;;;;;12.93;7.65;;;;;;;10.00;69.90;99275.09;5094324;28;20106;-81
2022/04/12 07:44:38;;;;;;;11.15;7.25;;;;;;;10.02;69.96;99273.34;5093484;28;20052;-80
2022/04/12 07:47:06;;;;;;;13.75;7.55;;;;;;;10.16;69.48;99250.69;5075651;28;20055;-80
2022/04/12 07:49:34;;;;;;;13.88;8.27;;;;;;;10.48;68.99;99280.16;5093573;28;20485;-79
2022/04/12 07:52:01;;;;;;;13.13;7.65;;;;;;;10.49;68.62;99269.69;5092698;28;20517;-79
2022/04/12 07:54:28;;;;;;;12.27;7.78;;;;;;;10.49;68.72;99272.28;5093319;28;20151;-79
2022/04/12 07:56:55;;;;;;;13.88;8.20;;;;;;;10.62;68.44;99260.03;5093316;28;20112;-79
2022/04/12 07:59:22;;;;;;;11.18;7.43;;;;;;;10.55;68.96;99253.13;5087912;28;20075;-78
2022/04/12 08:01:49;;;;;;;13.13;7.82;;;;;;;10.85;68.18;99257.28;5093201;28;20044;-79
2022/04/12 08:04:16;;;;;;;13.70;7.45;;;;;;;11.23;67.07;99243.88;5093775;28;20089;-78
2022/04/12 08:06:43;;;;;;;14.98;7.82;;;;;;;11.47;66.19;99213.16;5093643;28;20044;-80
2022/04/12 08:09:10;;;;;;;12.02;8.15;;;;;;;11.65;65.78;99252.16;5094041;28;20497;-77
2022/04/12 08:11:37;;;;;;;13.15;8.40;;;;;;;11.65;65.50;99205.09;5093688;28;20079;-79
2022/04/12 08:14:04;;;;;;;11.95;8.07;;;;;;;12.31;64.23;99240.09;5096286;28;20052;-79
2022/04/12 08:16:31;;;;;;;13.52;8.23;;;;;;;12.97;62.35;99249.59;5095508;28;20051;-81
2022/04/12 08:18:58;;;;;;;13.35;8.93;;;;;;;13.56;60.79;99251.25;5093043;28;20078;-81
2022/04/12 08:21:35;;;;;;;12.40;8.00;;;;;;;13.64;60.23;99242.31;5092509;28;20063;-81
2022/04/12 08:24:28;;;;;;;16.25;9.70;;;;;;;13.28;61.77;99233.34;5093711;28;20429;-80
2022/04/12 08:26:55;;;;;;;12.95;9.25;;;;;;;13.42;61.08;99252.38;5092479;28;20539;-80
2022/04/12 08:29:22;;;;;;;14.38;9.70;;;;;;;13.57;60.77;99250.31;5093430;28;20051;-80
2022/04/12 08:31:49;;;;;;;13.32;9.15;;;;;;;13.66;60.08;99240.53;5093735;28;20143;-79
2022/04/12 08:34:16;;;;;;;13.00;9.40;;;;;;;13.75;60.18;99255.25;5092558;28;20047;-79
2022/04/12 08:36:43;;;;;;;13.07;9.88;;;;;;;13.86;59.76;99253.28;5093178;28;20055;-82
2022/04/12 08:39:10;;;;;;;17.30;11.07;;;;;;;14.11;58.77;99258.00;5092437;28;20062;-82
2022/04/12 08:41:39;;;;;;;15.40;10.02;;;;;;;14.22;58.03;99232.41;5099819;28;20083;-81
2022/04/12 08:44:07;;;;;;;17.67;10.25;;;;;;;14.32;58.13;99212.03;5101677;28;20095;-81
2022/04/12 08:46:37;;;;;;;17.17;9.57;;;;;;;14.50;57.95;99234.44;5093444;28;20056;-81
2022/04/12 08:49:04;;;;;;;;;;;;;;;14.44;59.75;99229.31;5070380;28;20052;-81
2022/04/12 08:51:32;;;;;;;14.57;9.50;;;;;;;14.22;58.81;99224.53;5073877;28;20309;-80
2022/04/12 08:53:59;;;;;;;13.60;9.27;;;;;;;14.34;58.04;99210.25;5072444;28;20053;-83
2022/04/12 08:56:27;;;;;;;15.57;9.60;;;;;;;14.23;57.87;99185.97;5073546;28;20048;-82
2022/04/12 08:58:55;;;;;;;16.35;9.82;;;;;;;14.03;59.21;99229.31;5072502;28;20219;-81
2022/04/12 09:01:37;;;;;;;12.65;9.38;;;;;;;13.71;60.37;99235.19;5092709;28;20056;-81
2022/04/12 09:04:05;;;;;;;14.05;9.32;;;;;;;13.26;61.18;99196.63;5092457;28;20052;-83
2022/04/12 09:06:31;;;;;;;14.60;9.32;;;;;;;13.40;61.04;99230.53;5095045;28;20098;-81
2022/04/12 09:09:12;;;;;;;14.88;10.00;;;;;;;12.82;62.37;99218.34;5079501;28;20056;-82
2022/04/12 09:11:42;;;;;;;17.17;10.07;;;;;;;12.38;64.21;99233.00;5077971;28;20501;-83
2022/04/12 09:14:13;;;;;;;16.17;10.10;;;;;;;12.35;65.00;99236.53;5074656;28;20052;-81
2022/04/12 09:16:44;;;;;;;17.17;9.40;;;;;;;12.56;64.32;99224.00;5074167;28;20494;-79
2022/04/12 09:19:12;;;;;;;17.13;9.20;;;;;;;12.73;63.97;99226.38;5074492;28;20059;-82
2022/04/12 09:21:47;;;;;;;13.90;9.00;;;;;;;12.84;63.22;99220.09;5074493;28;20389;-83
2022/04/12 09:24:21;;;;;;;13.90;8.80;;;;;;;13.10;62.80;99203.06;5074239;28;20079;-82
2022/04/12 09:26:56;;;;;;;15.80;8.93;;;;;;;13.37;61.93;99195.63;5073578;28;20479;-83
2022/04/12 09:29:27;;;;;;;18.00;9.00;;;;;;;14.01;60.63;99219.72;5081069;28;20151;-81
2022/04/12 09:31:58;;;;;;;14.05;8.55;;;;;;;14.20;59.91;99233.34;5082574;28;20524;-80
2022/04/12 09:34:26;;;;;;;14.18;9.60;;;;;;;13.88;61.08;99221.75;5074098;28;20052;-80
2022/04/12 09:37:22;;;;;;;16.13;9.45;;;;;;;13.42;61.95;99218.25;5074396;28;20053;-80
2022/04/12 09:40:05;;;;;;;17.88;9.00;;;;;;;13.13;63.22;99225.75;5077189;28;20053;-80
2022/04/12 09:43:01;;;;;;;15.88;8.73;;;;;;;13.34;62.90;99214.91;5072697;28;20048;-82
2022/04/12 09:45:31;;;;;;;11.02;7.70;;;;;;;13.59;62.20;99203.94;5073512;28;20475;-79
2022/04/12 09:48:05;;;;;;;13.52;8.07;;;;;;;13.63;62.57;99222.22;5073606;28;20528;-80
2022/04/12 09:50:59;;;;;;;16.02;8.95;;;;;;;13.21;63.25;99229.97;5072647;28;20504;-81
2022/04/12 09:53:38;;;;;;;15.20;9.00;;;;;;;13.09;64.30;99227.53;5074581;28;20048;-82
2022/04/12 09:56:14;;;;;;;17.35;9.30;;;;;;;13.21;64.21;99226.47;5091897;28;20128;-80
2022/04/12 09:58:44;;;;;;;16.13;8.90;;;;;;;13.13;64.49;99234.47;5094080;28;20071;-80
2022/04/12 10:01:11;;;;;;;14.80;9.13;;;;;;;12.83;64.63;99207.00;5095717;28;20560;-81
2022/04/12 10:03:42;;;;;;;14.60;9.13;;;;;;;12.99;65.44;99241.69;5093549;28;20055;-81
2022/04/12 10:06:12;;;;;;;13.57;8.48;;;;;;;12.97;65.26;99235.59;5090822;28;20114;-84
2022/04/12 10:08:40;;;;;;;;;;;;;;;12.76;65.68;99240.31;5095878;28;20071;-81
2022/04/12 10:11:13;;;;;;;15.50;8.52;;;;;;;12.77;65.91;99246.41;5097574;28;19924;-81
2022/04/12 10:13:40;;;;;;;12.57;8.32;;;;;;;12.74;66.36;99247.31;5090506;28;20056;-79
2022/04/12 10:16:09;;;;;;;14.35;8.65;;;;;;;12.80;66.18;99255.09;5095529;28;20055;-80
2022/04/12 10:18:36;;;;;;;13.43;8.20;;;;;;;12.82;66.33;99247.19;5082021;28;20048;-80
2022/04/12 10:21:06;;;;;;;17.77;8.80;;;;;;;12.96;65.99;99239.97;5096723;28;20075;-81
2022/04/12 10:23:34;;;;;;;13.50;8.57;;;;;;;12.88;66.13;99244.47;5096609;28;20055;-82
2022/04/12 10:26:02;;;;;;;12.77;8.18;;;;;;;12.87;66.26;99241.00;5096234;28;20056;-81
2022/04/12 10:28:30;;;;;;;13.38;8.98;;;;;;;13.02;65.76;99225.91;5096036;28;20052;-81
2022/04/12 10:31:19;;;;;;;15.10;8.85;;;;;;;13.02;65.60;99221.53;5095926;28;20052;-80
2022/04/12 10:34:09;;;;;;;15.55;8.90;;;;;;;13.05;66.41;99237.19;5095939;28;20077;-79
2022/04/12 10:37:02;;;;;;;17.15;8.88;;;;;;;13.15;65.85;99231.81;5096395;28;20047;-81
2022/04/12 10:39:55;;;;;;;13.55;8.50;;;;;;;13.18;65.69;99230.00;5096195;28;20139;-80
2022/04/12 10:42:28;;;;;;;15.38;8.55;;;;;;;13.21;65.78;99242.22;5096275;28;20048;-81
2022/04/12 10:44:56;;;;;;;14.40;8.73;;;;;;;13.37;65.87;99237.59;5096143;28;20048;-80
2022/04/12 10:47:32;;;;;;;14.13;8.10;;;;;;;13.48;65.57;99217.25;5086952;28;20062;-82
2022/04/12 10:50:08;;;;;;;12.85;8.65;;;;;;;13.58;65.12;99226.69;5099528;28;20052;-83
2022/04/12 10:52:47;;;;;;;14.38;9.38;;;;;;;13.51;65.48;99207.59;5096101;28;20059;-83
2022/04/12 10:55:23;;;;;;;16.15;8.80;;;;;;;13.66;65.23;99218.69;5095705;28;20063;-83
2022/04/12 10:57:51;;;;;;;17.98;9.52;;;;;;;13.68;65.38;99219.50;5096177;28;20158;-80
2022/04/12 11:00:20;;;;;;;17.40;10.05;;;;;;;13.67;65.46;99220.41;5093749;28;20416;-79
2022/04/12 11:02:58;;;;;;;19.30;10.95;;;;;;;13.54;65.22;99204.03;5092935;28;20048;-79
2022/04/12 11:05:45;;;;;;;18.65;10.88;;;;;;;13.53;65.83;99207.56;5094490;28;20504;-78
2022/04/12 11:08:17;;;;;;;25.00;12.30;;;;;;;13.63;66.28;99218.72;5095621;28;20463;-79
2022/04/12 11:10:51;;;;;;;24.17;14.07;;;;;;;13.55;65.56;99212.75;5077020;28;20052;-80
2022/04/12 11:13:22;;;;;;;23.88;13.40;;;;;;;13.53;65.61;99218.06;5093883;28;20143;-79
2022/04/12 11:15:55;;;;;;;21.00;12.73;;;;;;;13.25;65.85;99210.66;5095297;28;20049;-80
2022/04/12 11:18:23;;;;;;;23.20;13.52;;;;;;;13.08;66.24;99205.69;5094467;28;20048;-78
2022/04/12 11:21:01;;;;;;;20.98;13.40;;;;;;;13.03;66.69;99204.91;5095367;28;20052;-80
2022/04/12 11:23:51;;;;;;;24.17;13.38;;;;;;;13.02;66.68;99200.56;5094930;28;20119;-79
2022/04/12 11:26:26;;;;;;;23.90;13.23;;;;;;;13.16;66.58;99181.94;5097208;28;20047;-79
2022/04/12 11:28:56;;;;;;;23.10;12.73;;;;;;;13.18;66.05;99195.03;5098119;28;20048;-80
2022/04/12 11:31:23;;;;;;;20.77;13.48;;;;;;;13.03;65.67;99202.28;5095216;28;20056;-79
2022/04/12 11:33:50;;;;;;;22.10;12.90;;;;;;;12.84;66.20;99183.41;5094352;28;20052;-80
2022/04/12 11:36:18;;;;;;;20.42;13.00;;;;;;;12.81;66.45;99169.47;5094790;28;20052;-79
2022/04/12 11:38:49;;;;;;;26.00;13.98;;;;;;;12.86;66.23;99202.59;5095115;28;20101;-79
2022/04/12 11:41:16;;;;;;;19.20;12.43;;;;;;;12.93;66.18;99203.34;5096431;28;20101;-78
2022/04/12 11:43:43;;;;;;;24.55;16.90;;;;;;;12.92;66.31;99196.34;5095220;28;20056;-80